Time,TemperatureF,DewpointF,PressureIn,WindDirection,WindDirectionDegrees,WindSpeedMPH,WindSpeedGustMPH,Humidity,HourlyPrecipIn,Conditions,Clouds,dailyrainin,SoftwareType,DateUTC
2013-04-08 00:00:00,37.3,35.7,29.77,NE,45,0.0,4.0,94,0.12,,SKC,0.05,VWS V14.01,2013-04-08 05:00:00,
2013-04-08 00:07:00,37.2,36.0,29.77,East,85,0.0,-999.0,94,-99.99,,,0.01,weatherlink.com 1.10,2013-04-08 05:07:00,
2013-04-08 00:22:00,37.0,36.0,29.77,ESE,107,0.0,-999.0,94,-99.99,,,0.04,weatherlink.com 1.10,2013-04-08 05:22:00,
2013-04-08 00:30:00,37.0,35.4,29.76,East,90,1.0,5.0,94,0.15,,SKC,0.10,VWS V14.01,2013-04-08 05:30:00,
2013-04-08 00:37:00,37.0,36.0,29.77,ESE,111,5.0,-999.0,94,-99.99,,,0.06,weatherlink.com 1.10,2013-04-08 05:37:00,
2013-04-08 00:52:00,36.9,36.0,29.76,NE,50,0.0,-999.0,95,-99.99,,,0.08,weatherlink.com 1.10,2013-04-08 05:52:00,
2013-04-08 01:00:00,37.0,35.7,29.76,ESE,112,0.0,5.0,95,0.14,,SKC,0.14,VWS V14.01,2013-04-08 06:00:00,
2013-04-08 01:07:00,37.0,36.0,29.76,ENE,67,0.0,-999.0,95,-99.99,,,0.10,weatherlink.com 1.10,2013-04-08 06:07:00,
2013-04-08 01:22:00,37.0,36.0,29.75,East,88,0.0,-999.0,95,-99.99,,,0.10,weatherlink.com 1.10,2013-04-08 06:22:00,
2013-04-08 01:30:00,37.0,35.7,29.75,East,90,1.0,6.0,95,0.11,,SKC,0.16,VWS V14.01,2013-04-08 06:30:00,
2013-04-08 01:37:00,37.0,36.0,29.75,East,98,0.0,-999.0,95,-99.99,,,0.11,weatherlink.com 1.10,2013-04-08 06:37:00,
2013-04-08 01:52:00,37.1,36.0,29.75,East,96,1.0,-999.0,96,-99.99,,,0.12,weatherlink.com 1.10,2013-04-08 06:52:00,
2013-04-08 02:00:00,37.1,36.1,29.75,East,90,1.0,5.0,96,0.07,,SKC,0.17,VWS V14.01,2013-04-08 07:00:00,
2013-04-08 02:07:00,37.1,36.0,29.74,NE,53,0.0,-999.0,96,-99.99,,,0.12,weatherlink.com 1.10,2013-04-08 07:07:00,
2013-04-08 02:22:00,37.1,36.0,29.74,East,85,3.0,-999.0,96,-99.99,,,0.12,weatherlink.com 1.10,2013-04-08 07:22:00,
2013-04-08 02:30:00,37.1,36.1,29.74,East,90,0.0,5.0,96,0.03,,SKC,0.17,VWS V14.01,2013-04-08 07:30:00,
2013-04-08 02:37:00,37.2,36.0,29.73,East,82,0.0,-999.0,96,-99.99,,,0.12,weatherlink.com 1.10,2013-04-08 07:37:00,
2013-04-08 02:52:00,37.1,36.0,29.73,ENE,78,0.0,-999.0,96,-99.99,,,0.12,weatherlink.com 1.10,2013-04-08 07:52:00,
2013-04-08 03:00:00,37.1,36.1,29.72,East,90,0.0,4.0,96,0.01,,SKC,0.17,VWS V14.01,2013-04-08 08:00:00,
2013-04-08 03:07:00,37.1,36.0,29.72,ENE,78,0.0,-999.0,96,-99.99,,,0.12,weatherlink.com 1.10,2013-04-08 08:07:00,
2013-04-08 03:22:00,37.1,36.0,29.72,ENE,78,0.0,-999.0,96,-99.99,,,0.12,weatherlink.com 1.10,2013-04-08 08:22:00,
2013-04-08 03:30:00,37.1,36.1,29.72,ENE,68,0.0,2.0,96,0.00,,SKC,0.17,VWS V14.01,2013-04-08 08:30:00,
2013-04-08 03:52:00,36.9,36.0,29.72,ENE,78,0.0,-999.0,96,-99.99,,,0.12,weatherlink.com 1.10,2013-04-08 08:52:00,
2013-04-08 04:00:00,36.9,35.9,29.72,ENE,68,0.0,0.0,96,0.00,,SKC,0.17,VWS V14.01,2013-04-08 09:00:00,
2013-04-08 04:07:00,36.9,36.0,29.72,ENE,78,0.0,-999.0,96,-99.99,,,0.12,weatherlink.com 1.10,2013-04-08 09:07:00,
2013-04-08 04:22:00,36.8,36.0,29.71,ENE,78,0.0,-999.0,96,-99.99,,,0.13,weatherlink.com 1.10,2013-04-08 09:22:00,
2013-04-08 04:30:00,36.8,35.8,29.71,ENE,68,0.0,2.0,96,0.01,,SKC,0.18,VWS V14.01,2013-04-08 09:30:00,
2013-04-08 04:37:00,36.9,36.0,29.71,ENE,78,0.0,-999.0,96,-99.99,,,0.14,weatherlink.com 1.10,2013-04-08 09:37:00,
2013-04-08 04:52:00,36.8,36.0,29.71,ENE,65,0.0,-999.0,96,-99.99,,,0.15,weatherlink.com 1.10,2013-04-08 09:52:00,
2013-04-08 05:00:00,36.8,35.8,29.71,ENE,68,0.0,3.0,96,0.04,,SKC,0.21,VWS V14.01,2013-04-08 10:00:00,
2013-04-08 05:07:00,36.7,36.0,29.71,ENE,65,0.0,-999.0,96,-99.99,,,0.18,weatherlink.com 1.10,2013-04-08 10:07:00,
2013-04-08 05:22:00,36.6,36.0,29.70,ENE,60,0.0,-999.0,96,-99.99,,,0.19,weatherlink.com 1.10,2013-04-08 10:22:00,
2013-04-08 05:30:00,36.6,35.6,29.70,ENE,68,0.0,4.0,96,0.07,,SKC,0.24,VWS V14.01,2013-04-08 10:30:00,
2013-04-08 05:37:00,36.5,36.0,29.70,NNW,330,0.0,-999.0,96,-99.99,,,0.19,weatherlink.com 1.10,2013-04-08 10:37:00,
2013-04-08 05:52:00,36.5,36.0,29.70,NNW,329,0.0,-999.0,96,-99.99,,,0.19,weatherlink.com 1.10,2013-04-08 10:52:00,
2013-04-08 06:00:00,36.4,35.4,29.70,NNW,338,0.0,4.0,96,0.07,,SKC,0.25,VWS V14.01,2013-04-08 11:00:00,
2013-04-08 06:07:00,36.4,35.0,29.70,North,355,0.0,-999.0,96,-99.99,,,0.20,weatherlink.com 1.10,2013-04-08 11:07:00,
2013-04-08 06:22:00,36.2,35.0,29.70,NW,319,0.0,-999.0,96,-99.99,,,0.20,weatherlink.com 1.10,2013-04-08 11:22:00,
2013-04-08 06:30:00,36.2,35.2,29.70,North,0,0.0,4.0,96,0.04,,SKC,0.25,VWS V14.01,2013-04-08 11:30:00,
2013-04-08 06:37:00,36.2,35.0,29.70,ENE,65,0.0,-999.0,96,-99.99,,,0.20,weatherlink.com 1.10,2013-04-08 11:37:00,
2013-04-08 06:52:00,36.2,35.0,29.70,NW,321,0.0,-999.0,96,-99.99,,,0.20,weatherlink.com 1.10,2013-04-08 11:52:00,
2013-04-08 07:00:00,36.2,35.2,29.71,East,90,0.0,7.0,96,0.01,,SKC,0.25,VWS V14.01,2013-04-08 12:00:00,
2013-04-08 07:07:00,36.2,35.0,29.71,North,9,0.0,-999.0,96,-99.99,,,0.20,weatherlink.com 1.10,2013-04-08 12:07:00,
2013-04-08 07:22:00,36.3,35.0,29.71,North,360,0.0,-999.0,96,-99.99,,,0.20,weatherlink.com 1.10,2013-04-08 12:22:00,
2013-04-08 07:30:00,36.4,35.4,29.72,North,0,0.0,4.0,96,0.00,,SKC,0.25,VWS V14.01,2013-04-08 12:30:00,
2013-04-08 07:37:00,36.4,35.0,29.72,NNW,340,0.0,-999.0,96,-99.99,,,0.20,weatherlink.com 1.10,2013-04-08 12:37:00,
2013-04-08 07:52:00,36.5,36.0,29.72,NNW,342,0.0,-999.0,96,-99.99,,,0.20,weatherlink.com 1.10,2013-04-08 12:52:00,
2013-04-08 08:00:00,36.5,35.7,29.73,NNW,338,0.0,4.0,97,0.00,,SKC,0.25,VWS V14.01,2013-04-08 13:00:00,
2013-04-08 08:07:00,36.6,36.0,29.73,NNE,14,0.0,-999.0,97,-99.99,,,0.20,weatherlink.com 1.10,2013-04-08 13:07:00,
2013-04-08 08:22:00,36.7,36.0,29.74,NW,316,0.0,-999.0,97,-99.99,,,0.20,weatherlink.com 1.10,2013-04-08 13:22:00,
2013-04-08 08:30:00,36.7,35.9,29.74,NW,315,0.0,6.0,97,0.00,,SKC,0.25,VWS V14.01,2013-04-08 13:30:00,
2013-04-08 08:37:00,36.7,36.0,29.74,NW,315,0.0,-999.0,97,-99.99,,,0.20,weatherlink.com 1.10,2013-04-08 13:37:00,
2013-04-08 08:52:00,36.7,36.0,29.74,NW,323,1.0,-999.0,97,-99.99,,,0.20,weatherlink.com 1.10,2013-04-08 13:52:00,
2013-04-08 09:00:00,36.7,35.9,29.74,NW,315,0.0,5.0,97,0.00,,SKC,0.25,VWS V14.01,2013-04-08 14:00:00,
2013-04-08 09:07:00,36.7,36.0,29.74,NNW,347,0.0,-999.0,97,-99.99,,,0.20,weatherlink.com 1.10,2013-04-08 14:07:00,
2013-04-08 09:22:00,36.9,36.0,29.75,NNW,331,0.0,-999.0,97,-99.99,,,0.21,weatherlink.com 1.10,2013-04-08 14:22:00,
2013-04-08 09:30:00,37.0,36.2,29.75,NNW,338,0.0,4.0,97,0.01,,SKC,0.26,VWS V14.01,2013-04-08 14:30:00,
2013-04-08 09:37:00,37.2,37.0,29.75,NNW,331,0.0,-999.0,97,-99.99,,,0.21,weatherlink.com 1.10,2013-04-08 14:37:00,
2013-04-08 09:52:00,37.4,37.0,29.75,NNW,343,1.0,-999.0,97,-99.99,,,0.21,weatherlink.com 1.10,2013-04-08 14:52:00,
2013-04-08 10:00:00,37.5,36.7,29.75,NNW,338,0.0,4.0,97,0.01,,SKC,0.26,VWS V14.01,2013-04-08 15:00:00,
2013-04-08 10:07:00,37.7,37.0,29.75,NE,34,0.0,-999.0,97,-99.99,,,0.21,weatherlink.com 1.10,2013-04-08 15:07:00,
2013-04-08 10:22:00,38.2,38.0,29.75,East,92,4.0,-999.0,97,-99.99,,,0.21,weatherlink.com 1.10,2013-04-08 15:22:00,
2013-04-08 10:30:00,38.3,37.5,29.75,East,90,1.0,8.0,97,0.01,,SKC,0.26,VWS V14.01,2013-04-08 15:30:00,
2013-04-08 10:37:00,38.4,38.0,29.76,East,98,2.0,-999.0,97,-99.99,,,0.21,weatherlink.com 1.10,2013-04-08 15:37:00,
2013-04-08 10:52:00,38.9,38.0,29.76,NE,37,0.0,-999.0,97,-99.99,,,0.21,weatherlink.com 1.10,2013-04-08 15:52:00,
2013-04-08 11:00:00,39.0,38.2,29.77,East,90,1.0,7.0,97,0.00,,SKC,0.26,VWS V14.01,2013-04-08 16:00:00,
2013-04-08 11:07:00,39.2,38.0,29.77,NE,42,0.0,-999.0,96,-99.99,,,0.21,weatherlink.com 1.10,2013-04-08 16:07:00,
2013-04-08 11:22:00,40.0,39.0,29.77,NE,53,0.0,-999.0,96,-99.99,,,0.21,weatherlink.com 1.10,2013-04-08 16:22:00,
2013-04-08 11:30:00,40.4,39.3,29.76,East,90,1.0,7.0,96,0.00,,SKC,0.26,VWS V14.01,2013-04-08 16:30:00,
2013-04-08 11:38:00,40.7,39.0,29.77,ENE,61,1.0,-999.0,95,-99.99,,,0.21,weatherlink.com 1.10,2013-04-08 16:38:00,
2013-04-08 11:53:00,40.7,39.0,29.79,East,96,0.0,-999.0,94,-99.99,,,0.21,weatherlink.com 1.10,2013-04-08 16:53:00,
2013-04-08 12:00:00,40.9,39.3,29.78,ENE,68,0.0,5.0,94,0.00,,SKC,0.26,VWS V14.01,2013-04-08 17:00:00,
2013-04-08 12:08:00,41.2,39.0,29.79,NNE,31,0.0,-999.0,93,-99.99,,,0.21,weatherlink.com 1.10,2013-04-08 17:08:00,
2013-04-08 12:23:00,41.3,40.0,29.79,NE,36,0.0,-999.0,93,-99.99,,,0.21,weatherlink.com 1.10,2013-04-08 17:23:00,
2013-04-08 12:30:00,41.2,39.3,29.79,NNE,22,0.0,5.0,93,0.00,,SKC,0.26,VWS V14.01,2013-04-08 17:30:00,
2013-04-08 12:38:00,41.3,40.0,29.79,NW,311,5.0,-999.0,93,-99.99,,,0.21,weatherlink.com 1.10,2013-04-08 17:38:00,
2013-04-08 12:53:00,41.0,39.0,29.79,NNW,336,0.0,-999.0,92,-99.99,,,0.21,weatherlink.com 1.10,2013-04-08 17:53:00,
2013-04-08 13:00:00,40.6,38.5,29.80,NW,315,1.0,10.0,92,0.00,,SKC,0.26,VWS V14.01,2013-04-08 18:00:00,
2013-04-08 13:08:00,40.1,38.0,29.80,WNW,299,0.0,-999.0,92,-99.99,,,0.21,weatherlink.com 1.10,2013-04-08 18:08:00,
2013-04-08 13:23:00,40.0,38.0,29.81,NE,43,0.0,-999.0,93,-99.99,,,0.21,weatherlink.com 1.10,2013-04-08 18:23:00,
2013-04-08 13:30:00,40.0,38.1,29.81,WNW,292,1.0,7.0,93,0.00,,SKC,0.26,VWS V14.01,2013-04-08 18:30:00,
2013-04-08 13:38:00,40.0,38.0,29.81,WNW,297,1.0,-999.0,93,-99.99,,,0.21,weatherlink.com 1.10,2013-04-08 18:38:00,
2013-04-08 13:53:00,40.2,38.0,29.81,NW,309,0.0,-999.0,93,-99.99,,,0.21,weatherlink.com 1.10,2013-04-08 18:53:00,
2013-04-08 14:00:00,40.4,38.5,29.82,WNW,292,1.0,9.0,93,0.00,,SKC,0.26,VWS V14.01,2013-04-08 19:00:00,
2013-04-08 14:08:00,40.6,39.0,29.82,NW,311,0.0,-999.0,93,-99.99,,,0.21,weatherlink.com 1.10,2013-04-08 19:08:00,
2013-04-08 14:30:00,40.7,38.6,29.82,NW,315,1.0,6.0,92,0.00,,SKC,0.26,VWS V14.01,2013-04-08 19:30:00,
2013-04-08 14:38:00,40.8,39.0,29.82,NNW,334,1.0,-999.0,92,-99.99,,,0.21,weatherlink.com 1.10,2013-04-08 19:38:00,
2013-04-08 14:53:00,41.0,39.0,29.83,NW,307,0.0,-999.0,91,-99.99,,,0.21,weatherlink.com 1.10,2013-04-08 19:53:00,
2013-04-08 15:00:00,41.0,38.6,29.83,NW,315,1.0,7.0,91,0.00,,SKC,0.26,VWS V14.01,2013-04-08 20:00:00,
2013-04-08 15:08:00,40.9,38.0,29.84,WNW,294,0.0,-999.0,90,-99.99,,,0.21,weatherlink.com 1.10,2013-04-08 20:08:00,
2013-04-08 15:23:00,40.7,38.0,29.83,NW,326,1.0,-999.0,91,-99.99,,,0.21,weatherlink.com 1.10,2013-04-08 20:23:00,
2013-04-08 15:30:00,40.8,38.4,29.82,NW,315,1.0,7.0,91,0.00,,SKC,0.26,VWS V14.01,2013-04-08 20:30:00,
2013-04-08 15:38:00,41.0,38.0,29.83,NW,324,0.0,-999.0,90,-99.99,,,0.21,weatherlink.com 1.10,2013-04-08 20:38:00,
2013-04-08 15:53:00,41.3,38.0,29.83,NNW,340,2.0,-999.0,89,-99.99,,,0.21,weatherlink.com 1.10,2013-04-08 20:53:00,
2013-04-08 16:00:00,41.3,38.6,29.83,NW,315,1.0,8.0,90,0.00,,SKC,0.26,VWS V14.01,2013-04-08 21:00:00,
2013-04-08 16:08:00,41.3,38.0,29.83,NNW,339,0.0,-999.0,89,-99.99,,,0.21,weatherlink.com 1.10,2013-04-08 21:08:00,
2013-04-08 16:23:00,41.4,38.0,29.84,NNW,331,0.0,-999.0,89,-99.99,,,0.21,weatherlink.com 1.10,2013-04-08 21:23:00,
2013-04-08 16:30:00,41.4,38.4,29.83,NNW,338,1.0,10.0,89,0.00,,SKC,0.26,VWS V14.01,2013-04-08 21:30:00,
2013-04-08 16:38:00,41.5,39.0,29.84,NW,323,6.0,-999.0,89,-99.99,,,0.21,weatherlink.com 1.10,2013-04-08 21:38:00,
2013-04-08 16:53:00,41.5,38.0,29.86,NW,318,2.0,-999.0,88,-99.99,,,0.21,weatherlink.com 1.10,2013-04-08 21:53:00,
2013-04-08 17:00:00,41.5,38.2,29.87,NW,315,1.0,9.0,88,0.00,,SKC,0.26,VWS V14.01,2013-04-08 22:00:00,
2013-04-08 17:08:00,41.6,38.0,29.87,NNW,332,0.0,-999.0,88,-99.99,,,0.21,weatherlink.com 1.10,2013-04-08 22:08:00,
2013-04-08 17:23:00,41.4,38.0,29.88,WNW,300,0.0,-999.0,88,-99.99,,,0.21,weatherlink.com 1.10,2013-04-08 22:23:00,
2013-04-08 17:30:00,41.4,38.1,29.88,NW,315,2.0,10.0,88,0.00,,SKC,0.26,VWS V14.01,2013-04-08 22:30:00,
2013-04-08 17:38:00,41.4,38.0,29.89,NNE,27,0.0,-999.0,88,-99.99,,,0.21,weatherlink.com 1.10,2013-04-08 22:38:00,
2013-04-08 17:53:00,41.3,38.0,29.90,NW,321,0.0,-999.0,88,-99.99,,,0.21,weatherlink.com 1.10,2013-04-08 22:53:00,
2013-04-08 18:00:00,41.2,37.9,29.90,NW,315,1.0,9.0,88,0.00,,SKC,0.26,VWS V14.01,2013-04-08 23:00:00,
2013-04-08 18:08:00,41.1,38.0,29.91,West,273,0.0,-999.0,87,-99.99,,,0.21,weatherlink.com 1.10,2013-04-08 23:08:00,
2013-04-08 18:23:00,41.0,37.0,29.93,WNW,302,2.0,-999.0,87,-99.99,,,0.21,weatherlink.com 1.10,2013-04-08 23:23:00,
2013-04-08 18:30:00,41.0,38.9,29.93,NW,315,1.0,8.0,92,0.00,,SKC,0.26,VWS V14.01,2013-04-08 23:30:00,
2013-04-08 18:38:00,40.9,37.0,29.94,North,355,0.0,-999.0,87,-99.99,,,0.21,weatherlink.com 1.10,2013-04-08 23:38:00,
2013-04-08 18:53:00,40.7,38.0,29.94,NW,320,4.0,-999.0,88,-99.99,,,0.21,weatherlink.com 1.10,2013-04-08 23:53:00,
2013-04-08 19:00:00,40.6,37.3,29.94,NW,315,1.0,7.0,88,0.00,,SKC,0.26,VWS V14.01,2013-04-09 00:00:00,
2013-04-08 19:08:00,40.5,37.0,29.94,North,9,0.0,-999.0,88,-99.99,,,0.21,weatherlink.com 1.10,2013-04-09 00:08:00,
2013-04-08 19:23:00,40.3,37.0,29.95,North,10,0.0,-999.0,88,-99.99,,,0.21,weatherlink.com 1.10,2013-04-09 00:23:00,
2013-04-08 19:30:00,40.3,37.0,29.95,NW,315,0.0,6.0,88,0.00,,SKC,0.26,VWS V14.01,2013-04-09 00:30:00,
2013-04-08 19:54:00,40.1,37.0,29.97,NW,306,0.0,-999.0,89,-99.99,,,0.21,weatherlink.com 1.10,2013-04-09 00:54:00,
2013-04-08 20:00:00,40.0,37.0,29.98,NNW,338,0.0,4.0,89,0.00,,SKC,0.26,VWS V14.01,2013-04-09 01:00:00,
2013-04-08 20:30:00,39.7,37.0,29.99,NW,315,0.0,1.0,90,0.00,,SKC,0.26,VWS V14.01,2013-04-09 01:30:00,
2013-04-08 20:38:00,39.6,37.0,30.00,NW,306,0.0,-999.0,90,-99.99,,,0.21,weatherlink.com 1.10,2013-04-09 01:38:00,
2013-04-08 20:54:00,39.5,37.0,30.00,NW,306,0.0,-999.0,90,-99.99,,,0.21,weatherlink.com 1.10,2013-04-09 01:54:00,
2013-04-08 21:00:00,39.5,36.8,30.00,NW,315,0.0,1.0,90,0.00,,SKC,0.26,VWS V14.01,2013-04-09 02:00:00,
2013-04-08 21:09:00,39.4,37.0,30.00,NW,306,0.0,-999.0,91,-99.99,,,0.21,weatherlink.com 1.10,2013-04-09 02:09:00,
2013-04-08 21:24:00,39.3,37.0,30.01,NE,51,0.0,-999.0,91,-99.99,,,0.21,weatherlink.com 1.10,2013-04-09 02:24:00,
2013-04-08 21:30:00,39.3,36.9,30.01,NE,45,0.0,2.0,91,0.00,,SKC,0.26,VWS V14.01,2013-04-09 02:30:00,
2013-04-08 21:39:00,39.2,37.0,30.01,NE,51,0.0,-999.0,91,-99.99,,,0.21,weatherlink.com 1.10,2013-04-09 02:39:00,
2013-04-08 22:00:00,39.0,36.6,30.00,NE,45,0.0,2.0,91,0.00,,SKC,0.26,VWS V14.01,2013-04-09 03:00:00,
2013-04-08 22:24:00,38.7,36.0,29.99,ENE,74,0.0,-999.0,91,-99.99,,,0.21,weatherlink.com 1.10,2013-04-09 03:24:00,
2013-04-08 22:30:00,38.6,36.2,30.00,East,90,0.0,5.0,91,0.00,,SKC,0.26,VWS V14.01,2013-04-09 03:30:00,
2013-04-08 22:39:00,38.4,36.0,30.02,NW,311,0.0,-999.0,91,-99.99,,,0.21,weatherlink.com 1.10,2013-04-09 03:39:00,
2013-04-08 22:54:00,38.6,37.0,30.02,NW,319,2.0,-999.0,92,-99.99,,,0.21,weatherlink.com 1.10,2013-04-09 03:54:00,
2013-04-08 23:00:00,38.6,36.5,30.02,NW,315,1.0,8.0,92,0.00,,SKC,0.26,VWS V14.01,2013-04-09 04:00:00,
2013-04-08 23:09:00,38.6,36.0,30.03,WNW,300,0.0,-999.0,91,-99.99,,,0.21,weatherlink.com 1.10,2013-04-09 04:09:00,
2013-04-08 23:24:00,38.7,36.0,30.05,NW,326,0.0,-999.0,91,-99.99,,,0.21,weatherlink.com 1.10,2013-04-09 04:24:00,
2013-04-08 23:30:00,38.6,36.2,30.05,WNW,292,0.0,8.0,91,0.00,,SKC,0.26,VWS V14.01,2013-04-09 04:30:00,
2013-04-08 23:39:00,38.5,36.0,30.06,NW,326,0.0,-999.0,91,-99.99,,,0.21,weatherlink.com 1.10,2013-04-09 04:39:00,
2013-04-08 23:54:00,38.3,36.0,30.05,NW,319,0.0,-999.0,90,-99.99,,,0.21,weatherlink.com 1.10,2013-04-09 04:54:00,